Time;durP1;ratioP1;P1;durP2;ratioP2;P2;SDS_P1;SDS_P2;PMS_P1;PMS_P2;Temp;Humidity;BMP_temperature;BMP_pressure;BME280_temperature;BME280_humidity;BME280_pressure;Samples;Min_cycle;Max_cycle;Signal;HPM_P1;HPM_P2
2023/12/30 00:02:13;;;;;;;11.83;8.00;;;;;;;3.96;100.00;97600.72;4965635;28;20049;-70
2023/12/30 00:04:39;;;;;;;11.73;7.67;;;;;;;3.94;100.00;97604.47;4997943;28;20053;-71
2023/12/30 00:07:05;;;;;;;11.53;7.17;;;;;;;3.98;100.00;97584.78;4981427;28;20124;-71
2023/12/30 00:09:31;;;;;;;8.33;5.83;;;;;;;4.00;100.00;97578.38;4981497;28;20384;-71
2023/12/30 00:11:56;;;;;;;11.73;6.20;;;;;;;3.97;100.00;97578.69;4997487;28;20496;-71
2023/12/30 00:14:22;;;;;;;8.33;5.73;;;;;;;3.98;100.00;97576.91;4997554;28;20500;-71
2023/12/30 00:16:48;;;;;;;10.00;6.20;;;;;;;3.93;100.00;97571.31;4964594;28;20053;-71
2023/12/30 00:19:14;;;;;;;9.83;5.53;;;;;;;3.87;100.00;97577.25;4997753;28;20071;-71
2023/12/30 00:21:40;;;;;;;9.63;5.70;;;;;;;3.84;100.00;97554.78;4997390;28;20041;-71
2023/12/30 00:24:06;;;;;;;12.53;6.10;;;;;;;3.93;100.00;97558.19;4965533;28;20063;-72
2023/12/30 00:26:32;;;;;;;8.63;5.70;;;;;;;3.80;100.00;97542.97;4981849;28;20136;-70
2023/12/30 00:29:11;;;;;;;7.90;5.37;;;;;;;3.98;100.00;97550.66;5016419;28;20134;-72
2023/12/30 00:31:37;;;;;;;6.40;4.40;;;;;;;3.88;100.00;97553.44;5001788;28;20066;-71
2023/12/30 00:34:03;;;;;;;5.63;4.80;;;;;;;3.93;100.00;97539.81;4985430;28;20051;-72
2023/12/30 00:36:29;;;;;;;7.10;4.30;;;;;;;3.91;100.00;97533.91;5001614;28;20056;-71
2023/12/30 00:39:11;;;;;;;7.57;5.03;;;;;;;3.89;100.00;97541.94;5005941;28;20041;-72
2023/12/30 00:41:38;;;;;;;6.17;4.30;;;;;;;3.93;100.00;97526.69;5001901;28;20049;-72
2023/12/30 00:44:04;;;;;;;8.20;4.57;;;;;;;3.87;100.00;97530.00;5001468;28;20071;-72
2023/12/30 00:46:30;;;;;;;9.13;4.83;;;;;;;3.87;100.00;97537.88;5001422;28;20098;-72
2023/12/30 00:48:56;;;;;;;6.20;4.13;;;;;;;3.85;100.00;97516.19;5001237;28;20057;-72
2023/12/30 00:51:22;;;;;;;6.07;4.00;;;;;;;3.71;100.00;97530.84;4985215;28;20044;-72
2023/12/30 00:53:48;;;;;;;5.50;4.23;;;;;;;3.81;100.00;97518.38;5001682;28;20049;-72
2023/12/30 00:56:14;;;;;;;6.60;4.40;;;;;;;3.86;100.00;97538.88;5001508;28;20064;-71
2023/12/30 00:58:40;;;;;;;6.77;4.17;;;;;;;3.82;100.00;97509.50;5001204;28;20080;-72
2023/12/30 01:01:07;;;;;;;5.03;4.20;;;;;;;3.72;100.00;97510.66;4985552;28;20041;-72
2023/12/30 01:03:33;;;;;;;5.13;3.73;;;;;;;3.75;100.00;97520.84;4985318;28;20068;-72
2023/12/30 01:05:59;;;;;;;5.33;4.10;;;;;;;3.80;100.00;97506.22;4984984;28;20505;-72
2023/12/30 01:08:25;;;;;;;5.70;4.07;;;;;;;3.85;100.00;97501.28;5001181;28;20084;-72
2023/12/30 01:10:51;;;;;;;4.33;3.87;;;;;;;3.85;100.00;97514.41;4985326;28;20037;-72
2023/12/30 01:13:18;;;;;;;4.23;3.33;;;;;;;3.71;100.00;97503.75;5001499;28;20375;-72
2023/12/30 01:15:44;;;;;;;5.30;3.83;;;;;;;3.77;100.00;97500.50;5001165;28;20047;-71
2023/12/30 01:18:10;;;;;;;6.87;3.90;;;;;;;3.74;100.00;97496.38;4974072;28;20378;-71
2023/12/30 01:20:37;;;;;;;5.33;3.63;;;;;;;3.72;100.00;97510.66;4954900;28;20089;-72
2023/12/30 01:23:03;;;;;;;4.93;3.60;;;;;;;3.69;100.00;97490.00;4954885;28;20514;-71
2023/12/30 01:25:29;;;;;;;5.43;3.53;;;;;;;3.75;100.00;97486.72;4938768;28;20145;-71
2023/12/30 01:27:56;;;;;;;5.07;3.67;;;;;;;3.75;100.00;97497.22;4924257;28;20137;-71
2023/12/30 01:30:22;;;;;;;4.23;3.07;;;;;;;3.75;100.00;97492.78;4907780;29;20055;-72
2023/12/30 01:32:50;;;;;;;4.83;3.57;;;;;;;3.65;100.00;97489.50;4908566;29;20058;-72
2023/12/30 01:35:16;;;;;;;4.27;3.33;;;;;;;3.71;100.00;97501.13;4892064;28;20051;-72
2023/12/30 01:37:41;;;;;;;4.37;3.50;;;;;;;3.64;100.00;97474.75;4892010;28;20058;-72
2023/12/30 01:40:08;;;;;;;4.87;3.50;;;;;;;3.72;100.00;97482.59;4907628;28;20474;-73
2023/12/30 01:42:34;;;;;;;6.20;3.60;;;;;;;3.73;100.00;97484.25;4892031;29;20062;-72
2023/12/30 01:45:01;;;;;;;3.80;3.40;;;;;;;3.70;100.00;97478.50;4907569;29;20070;-72
2023/12/30 01:47:27;;;;;;;4.50;3.63;;;;;;;3.76;100.00;97475.22;4907191;29;20477;-72
2023/12/30 01:49:53;;;;;;;6.30;4.03;;;;;;;3.81;100.00;97470.28;4939571;28;20531;-72
2023/12/30 01:52:19;;;;;;;6.50;4.10;;;;;;;3.83;100.00;97474.38;4977062;28;20081;-72
2023/12/30 01:54:45;;;;;;;8.03;4.77;;;;;;;3.88;100.00;97468.59;4942029;28;20063;-71
2023/12/30 01:57:11;;;;;;;6.70;4.70;;;;;;;3.87;100.00;97462.56;4926238;28;20054;-72
2023/12/30 01:59:38;;;;;;;3.90;3.50;;;;;;;4.08;100.00;97451.47;4954204;29;20058;-72
2023/12/30 02:02:04;;;;;;;6.13;4.57;;;;;;;4.00;100.00;97462.81;4925777;28;20062;-72
2023/12/30 02:04:30;;;;;;;6.20;4.63;;;;;;;4.01;100.00;97461.84;4961050;28;20097;-71
2023/12/30 02:06:56;;;;;;;5.43;4.47;;;;;;;4.08;100.00;97461.97;4961157;28;20057;-71
2023/12/30 02:09:22;;;;;;;5.27;4.30;;;;;;;4.08;100.00;97440.97;4945392;28;20046;-72
2023/12/30 02:11:48;;;;;;;5.13;4.50;;;;;;;4.20;100.00;97455.34;4945245;28;20050;-72
2023/12/30 02:14:27;;;;;;;6.03;4.67;;;;;;;4.35;100.00;97449.19;4960850;28;20085;-71
2023/12/30 02:16:54;;;;;;;9.63;5.03;;;;;;;4.28;100.00;97450.88;4961475;28;20116;-71
2023/12/30 02:19:39;;;;;;;9.77;5.03;;;;;;;4.30;100.00;97442.84;4966428;28;20530;-71
2023/12/30 02:22:05;;;;;;;6.40;4.70;;;;;;;4.31;100.00;97434.78;4976764;28;20046;-71
2023/12/30 02:24:31;;;;;;;6.67;5.20;;;;;;;4.24;100.00;97452.22;4977355;28;20061;-71
2023/12/30 02:26:58;;;;;;;6.80;4.90;;;;;;;4.26;100.00;97454.69;4983744;28;20107;-71
2023/12/30 02:29:23;;;;;;;7.50;5.27;;;;;;;4.37;100.00;97451.66;4967468;28;20052;-71
2023/12/30 02:31:49;;;;;;;6.53;4.40;;;;;;;4.45;100.00;97436.69;4967170;28;20455;-71
2023/12/30 02:34:17;;;;;;;6.30;4.50;;;;;;;4.52;100.00;97442.06;4983332;28;20045;-71
2023/12/30 02:36:44;;;;;;;9.33;4.83;;;;;;;4.46;100.00;97433.03;4998721;28;20052;-72
2023/12/30 02:39:10;;;;;;;5.80;4.73;;;;;;;4.41;100.00;97448.50;5022959;28;20041;-71
2023/12/30 02:41:36;;;;;;;5.97;4.60;;;;;;;4.42;100.00;97439.66;5006944;28;20048;-72
2023/12/30 02:44:03;;;;;;;6.27;4.70;;;;;;;4.44;100.00;97432.44;5023259;28;20044;-71
2023/12/30 02:46:29;;;;;;;4.90;4.40;;;;;;;4.64;100.00;97432.78;5023269;28;20037;-71
2023/12/30 02:48:57;;;;;;;4.87;4.13;;;;;;;4.47;100.00;97426.00;5023462;28;20079;-71
2023/12/30 02:51:24;;;;;;;5.43;4.40;;;;;;;4.65;100.00;97429.16;5007401;28;20040;-71
2023/12/30 02:53:50;;;;;;;4.67;4.17;;;;;;;4.65;100.00;97437.88;5006678;28;20036;-71
2023/12/30 02:56:24;;;;;;;6.80;4.17;;;;;;;4.77;100.00;97430.38;5023066;28;20048;-71
2023/12/30 02:58:58;;;;;;;5.47;4.20;;;;;;;4.81;100.00;97434.31;5022962;28;20044;-72
2023/12/30 03:01:25;;;;;;;5.87;4.40;;;;;;;4.77;100.00;97444.34;5006933;28;20047;-71
2023/12/30 03:03:54;;;;;;;7.10;4.33;;;;;;;4.79;100.00;97450.25;5007301;28;20044;-72
2023/12/30 03:06:21;;;;;;;4.40;3.83;;;;;;;4.63;100.00;97442.47;5022733;28;20106;-72
2023/12/30 03:08:48;;;;;;;5.27;3.90;;;;;;;4.80;100.00;97432.66;5023079;28;20041;-72
2023/12/30 03:11:14;;;;;;;3.80;3.25;;;;;;;4.82;100.00;97451.72;5006503;28;20098;-72
2023/12/30 03:13:39;;;;;;;5.10;3.87;;;;;;;4.81;100.00;97437.75;5006395;28;20051;-72
2023/12/30 03:16:06;;;;;;;4.77;3.90;;;;;;;4.88;100.00;97443.13;5006794;28;20118;-70
2023/12/30 03:18:32;;;;;;;4.72;3.42;;;;;;;4.92;100.00;97431.28;5023491;28;20169;-70
2023/12/30 03:20:58;;;;;;;5.23;3.40;;;;;;;4.83;100.00;97438.38;5006567;28;20040;-70
2023/12/30 03:23:24;;;;;;;5.65;3.40;;;;;;;4.93;100.00;97427.63;5019292;28;20061;-71
2023/12/30 03:25:50;;;;;;;3.85;3.42;;;;;;;4.87;100.00;97444.91;5019171;28;20144;-70
2023/12/30 03:28:17;;;;;;;4.77;3.63;;;;;;;4.85;100.00;97456.63;5003018;28;20059;-71
2023/12/30 03:30:45;;;;;;;4.33;3.53;;;;;;;4.90;100.00;97441.97;5003079;28;20044;-72
2023/12/30 03:33:11;;;;;;;4.88;3.47;;;;;;;4.86;100.00;97439.84;5003018;28;20394;-72
2023/12/30 03:35:37;;;;;;;3.40;3.10;;;;;;;4.84;100.00;97433.97;5019044;28;20056;-72
2023/12/30 03:38:03;;;;;;;4.37;3.80;;;;;;;4.90;100.00;97435.88;5002454;28;20045;-72
2023/12/30 03:40:29;;;;;;;4.53;3.25;;;;;;;4.90;100.00;97449.03;4986581;28;20045;-71
2023/12/30 03:42:54;;;;;;;4.65;3.60;;;;;;;5.03;100.00;97443.97;4986807;28;20067;-72
2023/12/30 03:45:20;;;;;;;4.13;3.67;;;;;;;5.00;100.00;97462.75;5002384;28;20132;-71
2023/12/30 03:47:47;;;;;;;5.53;3.90;;;;;;;4.98;100.00;97448.97;5002205;28;20472;-71
2023/12/30 03:50:13;;;;;;;4.45;3.38;;;;;;;5.07;100.00;97447.91;5018686;28;20124;-71
2023/12/30 03:52:39;;;;;;;5.10;3.63;;;;;;;5.05;100.00;97437.56;4958958;28;20149;-71
2023/12/30 03:55:05;;;;;;;5.30;3.50;;;;;;;4.97;100.00;97452.56;4943161;28;20086;-71
2023/12/30 03:57:31;;;;;;;4.82;3.90;;;;;;;5.00;100.00;97449.59;4943307;28;20054;-71
2023/12/30 03:59:57;;;;;;;5.00;3.37;;;;;;;4.97;100.00;97453.41;4942920;28;20053;-71
2023/12/30 04:02:22;;;;;;;3.92;3.35;;;;;;;5.00;100.00;97447.78;4946364;28;20050;-71
2023/12/30 04:04:48;;;;;;;4.80;3.45;;;;;;;5.03;100.00;97442.19;4946173;28;20037;-72
2023/12/30 04:07:14;;;;;;;5.00;3.58;;;;;;;5.15;100.00;97442.59;4962183;28;20056;-71
2023/12/30 04:09:40;;;;;;;4.07;3.33;;;;;;;5.13;100.00;97445.41;4946477;28;20096;-72
2023/12/30 04:12:07;;;;;;;3.70;3.35;;;;;;;5.15;100.00;97451.28;4962169;28;20045;-71
2023/12/30 04:14:33;;;;;;;6.28;3.55;;;;;;;5.16;100.00;97455.56;4946149;28;20990;-71
2023/12/30 04:16:58;;;;;;;4.53;4.00;;;;;;;5.14;100.00;97461.97;4946701;28;20037;-71
2023/12/30 04:19:24;;;;;;;5.72;4.00;;;;;;;5.26;100.00;97472.91;4946390;28;20495;-71
2023/12/30 04:21:51;;;;;;;4.40;3.67;;;;;;;5.11;100.00;97468.44;4945996;28;20380;-71
2023/12/30 04:24:18;;;;;;;5.05;4.10;;;;;;;5.21;100.00;97468.19;5005033;28;20049;-68
2023/12/30 04:26:45;;;;;;;6.18;3.28;;;;;;;5.16;100.00;97454.75;5034698;28;20057;-72
2023/12/30 04:29:11;;;;;;;5.53;3.63;;;;;;;5.24;100.00;97470.47;4985685;28;20474;-74
2023/12/30 04:31:38;;;;;;;8.95;4.15;;;;;;;5.24;100.00;97466.00;5018444;28;20054;-72
2023/12/30 04:34:04;;;;;;;4.60;3.60;;;;;;;5.30;100.00;97467.13;5018219;28;20459;-72
2023/12/30 04:36:30;;;;;;;4.20;3.80;;;;;;;5.19;100.00;97467.53;5018315;28;20052;-73
2023/12/30 04:38:56;;;;;;;4.68;4.07;;;;;;;5.29;100.00;97472.56;5017709;28;20048;-74
2023/12/30 04:41:21;;;;;;;7.50;4.10;;;;;;;5.26;100.00;97465.03;5001476;28;20044;-74
2023/12/30 04:43:47;;;;;;;4.28;3.40;;;;;;;5.23;100.00;97474.06;5001440;28;20047;-74
2023/12/30 04:46:13;;;;;;;6.28;4.43;;;;;;;5.22;100.00;97491.69;5001713;28;20563;-73
2023/12/30 04:48:39;;;;;;;7.03;4.28;;;;;;;5.28;100.00;97476.16;5001139;28;20052;-73
2023/12/30 04:51:05;;;;;;;5.53;4.10;;;;;;;5.38;100.00;97480.22;5017704;28;20045;-75
2023/12/30 04:53:31;;;;;;;6.75;4.72;;;;;;;5.36;100.00;97482.19;5001732;28;20044;-74
2023/12/30 04:55:57;;;;;;;5.60;3.70;;;;;;;5.37;100.00;97485.63;5033763;28;20044;-69
2023/12/30 04:58:23;;;;;;;7.63;3.83;;;;;;;5.43;100.00;97484.94;4961311;28;20050;-77
2023/12/30 05:00:50;;;;;;;4.25;3.58;;;;;;;5.36;100.00;97503.25;4943454;28;20089;-76
2023/12/30 05:03:16;;;;;;;4.38;3.58;;;;;;;5.51;100.00;97490.94;4945097;28;20084;-77
2023/12/30 05:05:43;;;;;;;6.25;3.90;;;;;;;5.50;100.00;97501.66;4939005;28;20051;-78
2023/12/30 05:08:09;;;;;;;6.38;4.07;;;;;;;5.33;100.00;97514.13;4938803;28;20058;-80
2023/12/30 05:10:36;;;;;;;4.30;3.78;;;;;;;5.45;100.00;97502.19;4919655;29;20074;-78
2023/12/30 05:13:03;;;;;;;4.68;3.63;;;;;;;5.39;100.00;97502.91;4920291;29;20055;-75
2023/12/30 05:15:29;;;;;;;4.78;3.90;;;;;;;5.51;100.00;97519.06;4919702;29;20051;-78
2023/12/30 05:17:54;;;;;;;4.07;3.28;;;;;;;5.63;100.00;97515.03;4919885;29;20055;-77
2023/12/30 05:20:22;;;;;;;3.67;3.28;;;;;;;5.68;100.00;97510.03;4919695;29;20055;-76
2023/12/30 05:23:14;;;;;;;4.38;3.60;;;;;;;5.68;100.00;97526.66;4935472;29;20145;-78
2023/12/30 05:25:40;;;;;;;4.80;3.40;;;;;;;5.68;100.00;97523.19;4885208;29;20123;-76
2023/12/30 05:28:06;;;;;;;5.10;3.45;;;;;;;5.69;100.00;97541.44;4900537;29;20060;-78
2023/12/30 05:30:32;;;;;;;4.20;3.40;;;;;;;5.64;100.00;97537.72;4900785;29;20056;-74
2023/12/30 05:32:59;;;;;;;4.13;3.00;;;;;;;5.72;100.00;97549.00;4883531;29;20090;-77
2023/12/30 05:35:25;;;;;;;4.72;3.17;;;;;;;5.69;100.00;97548.53;4906286;29;20052;-77
2023/12/30 05:37:51;;;;;;;6.05;3.33;;;;;;;5.71;100.00;97551.81;4918683;29;20070;-77
2023/12/30 05:40:16;;;;;;;4.40;3.58;;;;;;;5.64;100.00;97551.72;4919114;29;20520;-76
2023/12/30 05:42:42;;;;;;;4.78;3.53;;;;;;;5.74;100.00;97554.91;4929927;28;20133;-77
2023/12/30 05:45:08;;;;;;;5.28;3.50;;;;;;;5.74;100.00;97554.91;4942097;28;20140;-79
2023/12/30 05:47:34;;;;;;;6.53;3.80;;;;;;;5.76;100.00;97562.63;4958455;28;20054;-79
2023/12/30 05:50:00;;;;;;;5.03;3.60;;;;;;;5.81;100.00;97563.72;4942044;28;20058;-80
2023/12/30 05:52:26;;;;;;;4.68;3.33;;;;;;;5.87;100.00;97575.41;4942443;28;20931;-80
2023/12/30 05:54:52;;;;;;;7.03;3.30;;;;;;;5.86;100.00;97569.31;4974360;28;20050;-79
2023/12/30 05:57:17;;;;;;;4.28;3.50;;;;;;;5.90;100.00;97570.59;4972135;28;20368;-79
2023/12/30 05:59:43;;;;;;;4.50;3.33;;;;;;;5.94;100.00;97582.41;4962422;28;20107;-75
2023/12/30 06:02:09;;;;;;;6.03;3.78;;;;;;;5.96;100.00;97572.53;4963963;28;20048;-75
2023/12/30 06:04:40;;;;;;;3.95;3.15;;;;;;;5.99;100.00;97589.78;4964410;28;20047;-78
2023/12/30 06:07:05;;;;;;;5.03;2.88;;;;;;;5.94;100.00;97584.22;5011918;28;20038;-78
2023/12/30 06:09:32;;;;;;;3.55;3.03;;;;;;;5.88;100.00;97595.47;4980925;28;20494;-77
2023/12/30 06:11:58;;;;;;;5.40;2.88;;;;;;;5.93;100.00;97601.84;4988055;28;20149;-77
2023/12/30 06:14:24;;;;;;;3.10;2.80;;;;;;;5.96;100.00;97612.03;5009812;28;20047;-78
2023/12/30 06:16:49;;;;;;;2.95;2.72;;;;;;;5.98;100.00;97625.81;5031074;28;20099;-75
2023/12/30 06:19:16;;;;;;;5.22;2.90;;;;;;;5.98;100.00;97619.75;5023909;28;20028;-79
2023/12/30 06:21:45;;;;;;;4.15;2.97;;;;;;;6.08;100.00;97634.31;5023904;28;20191;-78
2023/12/30 06:24:10;;;;;;;3.30;2.90;;;;;;;6.06;100.00;97633.66;5006402;28;20144;-78
2023/12/30 06:26:38;;;;;;;3.70;2.72;;;;;;;6.10;100.00;97648.16;5004852;28;20124;-79
2023/12/30 06:29:07;;;;;;;5.15;2.42;;;;;;;6.19;100.00;97654.97;5040594;28;20040;-78
2023/12/30 06:31:33;;;;;;;3.97;2.65;;;;;;;6.14;100.00;97653.84;5054032;28;20052;-78
2023/12/30 06:33:59;;;;;;;2.97;2.67;;;;;;;6.02;100.00;97653.47;5023401;28;20462;-78
2023/12/30 06:36:25;;;;;;;4.05;2.65;;;;;;;6.06;100.00;97660.00;5019126;28;20352;-78
2023/12/30 06:38:51;;;;;;;3.58;2.17;;;;;;;6.15;100.00;97669.47;5006914;28;20425;-78
2023/12/30 06:41:20;;;;;;;6.60;2.50;;;;;;;6.14;100.00;97667.84;5006825;28;20044;-77
2023/12/30 06:43:47;;;;;;;3.60;2.95;;;;;;;6.18;100.00;97673.59;5022420;28;20068;-77
2023/12/30 06:46:13;;;;;;;3.80;2.65;;;;;;;6.18;100.00;97681.50;5017322;28;20080;-75
2023/12/30 06:48:39;;;;;;;3.15;2.30;;;;;;;6.13;100.00;97679.41;5017299;28;20467;-75
2023/12/30 06:51:09;;;;;;;3.33;2.58;;;;;;;6.20;100.00;97685.59;5001230;28;20067;-76
2023/12/30 06:53:35;;;;;;;2.67;2.40;;;;;;;6.13;100.00;97689.94;5002244;28;20059;-76
2023/12/30 06:56:02;;;;;;;2.80;2.10;;;;;;;6.17;100.00;97693.84;4985693;28;20041;-76
2023/12/30 06:58:29;;;;;;;2.78;2.00;;;;;;;6.15;100.00;97708.22;5003757;28;20406;-76
2023/12/30 07:00:55;;;;;;;2.03;1.77;;;;;;;6.13;100.00;97708.41;5037001;28;20202;-77
2023/12/30 07:03:20;;;;;;;1.67;1.40;;;;;;;6.13;100.00;97710.19;4987744;28;20074;-77
2023/12/30 07:05:47;;;;;;;1.83;1.50;;;;;;;6.18;100.00;97721.03;5003620;28;20316;-76
2023/12/30 07:08:13;;;;;;;1.50;1.38;;;;;;;6.23;100.00;97711.59;5019660;28;20047;-76
2023/12/30 07:10:39;;;;;;;1.50;1.40;;;;;;;6.20;100.00;97726.94;5003654;28;20036;-77
2023/12/30 07:13:06;;;;;;;1.73;1.50;;;;;;;6.20;100.00;97733.03;5003871;28;20052;-76
2023/12/30 07:15:32;;;;;;;3.28;1.40;;;;;;;6.17;100.00;97743.94;5002899;28;20477;-76
2023/12/30 07:17:59;;;;;;;1.40;1.30;;;;;;;6.16;100.00;97759.91;5003276;28;20039;-76
2023/12/30 07:20:28;;;;;;;1.85;1.50;;;;;;;6.02;100.00;97761.50;4987131;28;20047;-77
2023/12/30 07:22:56;;;;;;;1.88;1.55;;;;;;;5.97;100.00;97755.09;4988095;28;20045;-77
2023/12/30 07:25:22;;;;;;;2.95;1.80;;;;;;;5.97;100.00;97769.09;4986615;28;20143;-75
2023/12/30 07:27:49;;;;;;;2.00;1.30;;;;;;;6.01;100.00;97780.91;4987100;28;20044;-76
2023/12/30 07:30:15;;;;;;;0.93;0.93;;;;;;;5.99;100.00;97790.84;5003139;28;20095;-77
2023/12/30 07:32:40;;;;;;;2.00;1.40;;;;;;;5.98;100.00;97798.91;4987361;28;20045;-77
2023/12/30 07:35:07;;;;;;;1.65;1.00;;;;;;;5.94;100.00;97793.16;4986921;28;20056;-78
2023/12/30 07:37:33;;;;;;;1.90;0.95;;;;;;;6.03;100.00;97805.28;5002948;28;20087;-76
2023/12/30 07:40:02;;;;;;;1.10;1.00;;;;;;;6.13;100.00;97812.97;4986473;28;20048;-76
2023/12/30 07:42:29;;;;;;;1.23;1.10;;;;;;;6.15;100.00;97811.78;5019459;28;20047;-77
2023/12/30 07:44:58;;;;;;;4.03;1.15;;;;;;;6.38;100.00;97809.97;4986192;28;20475;-76
2023/12/30 07:47:25;;;;;;;3.97;1.02;;;;;;;6.44;100.00;97827.72;5018779;28;20632;-77
2023/12/30 07:49:52;;;;;;;1.10;1.00;;;;;;;6.58;100.00;97829.59;5019185;28;20119;-77
2023/12/30 07:52:18;;;;;;;1.00;1.00;;;;;;;6.72;100.00;97826.19;4978348;28;20444;-77
2023/12/30 07:54:48;;;;;;;0.98;0.90;;;;;;;6.82;100.00;97836.50;4962670;28;20158;-77
2023/12/30 07:57:15;;;;;;;3.45;0.90;;;;;;;6.91;100.00;97832.78;4994729;28;20054;-75
2023/12/30 07:59:41;;;;;;;1.63;1.00;;;;;;;6.76;100.00;97848.56;4962839;28;20049;-76
2023/12/30 08:02:08;;;;;;;2.58;0.80;;;;;;;6.72;100.00;97857.03;4962527;28;20392;-77
2023/12/30 08:04:35;;;;;;;1.25;1.00;;;;;;;6.72;100.00;97857.03;4994900;28;20468;-77
2023/12/30 08:07:00;;;;;;;0.93;0.82;;;;;;;6.74;100.00;97861.13;4962162;28;20141;-77
2023/12/30 08:09:26;;;;;;;2.33;1.00;;;;;;;6.59;100.00;97852.38;4942916;28;20054;-77
2023/12/30 08:11:52;;;;;;;0.90;0.90;;;;;;;6.59;100.00;97851.53;4959305;28;20489;-77
2023/12/30 08:14:22;;;;;;;1.10;1.00;;;;;;;6.76;100.00;97866.25;4934885;29;20094;-76
2023/12/30 08:16:51;;;;;;;1.05;0.88;;;;;;;6.79;100.00;97873.81;4952449;28;20058;-76
2023/12/30 08:19:17;;;;;;;1.25;1.13;;;;;;;6.63;100.00;97885.28;4882068;29;20059;-76
2023/12/30 08:21:55;;;;;;;1.20;1.10;;;;;;;6.69;100.00;97887.22;4883209;29;20091;-76
2023/12/30 08:24:21;;;;;;;1.10;1.00;;;;;;;6.53;100.00;97895.22;4962310;28;20146;-77
2023/12/30 08:26:47;;;;;;;1.08;0.98;;;;;;;6.44;100.00;97900.75;4951589;29;20138;-76
2023/12/30 08:29:17;;;;;;;3.67;1.00;;;;;;;6.43;100.00;97904.38;4916902;29;20138;-77
2023/12/30 08:31:46;;;;;;;1.10;1.00;;;;;;;6.40;100.00;97899.44;4917252;29;20174;-69
2023/12/30 08:34:13;;;;;;;1.02;1.02;;;;;;;6.46;100.00;97923.31;4901335;29;20138;-76
2023/12/30 08:36:38;;;;;;;1.42;1.20;;;;;;;6.41;100.00;97927.47;4887530;29;20119;-76
2023/12/30 08:39:06;;;;;;;1.55;1.23;;;;;;;6.33;100.00;97925.72;4914893;29;20043;-76
2023/12/30 08:41:39;;;;;;;1.45;1.35;;;;;;;6.36;100.00;97941.19;4921761;28;20062;-76
2023/12/30 08:44:07;;;;;;;1.80;1.35;;;;;;;6.29;100.00;97934.94;4934518;28;20061;-76
2023/12/30 08:46:34;;;;;;;2.00;1.60;;;;;;;6.30;100.00;97931.31;4927611;29;20689;-77
2023/12/30 08:49:26;;;;;;;1.67;1.58;;;;;;;6.53;100.00;97937.44;4864926;29;20074;-75
2023/12/30 08:51:51;;;;;;;1.88;1.67;;;;;;;6.48;100.00;97939.78;4932072;28;20085;-76
2023/12/30 08:54:17;;;;;;;3.42;1.80;;;;;;;6.46;100.00;97940.94;4935193;28;20616;-75
2023/12/30 08:56:43;;;;;;;2.88;2.15;;;;;;;6.45;100.00;97949.84;4938519;28;20057;-76
2023/12/30 08:59:09;;;;;;;2.25;1.70;;;;;;;6.53;100.00;97955.88;4967180;28;20090;-76
2023/12/30 09:01:38;;;;;;;2.50;1.83;;;;;;;6.53;100.00;97949.81;4969046;28;20042;-76
2023/12/30 09:04:04;;;;;;;2.75;1.90;;;;;;;6.59;100.00;97954.38;4944111;28;20052;-77
2023/12/30 09:06:31;;;;;;;2.92;1.90;;;;;;;6.66;100.00;97955.31;4963955;28;20147;-76
2023/12/30 09:08:57;;;;;;;1.50;1.40;;;;;;;6.74;100.00;97964.03;4972151;28;20074;-77
2023/12/30 09:11:23;;;;;;;1.73;1.63;;;;;;;6.77;100.00;97976.88;4973471;28;20108;-76
2023/12/30 09:13:51;;;;;;;2.40;1.40;;;;;;;6.82;100.00;97985.09;4960722;28;20058;-77
2023/12/30 09:16:18;;;;;;;2.53;1.52;;;;;;;6.85;100.00;97984.75;4932023;29;20053;-76
2023/12/30 09:18:50;;;;;;;2.47;1.60;;;;;;;6.73;100.00;98004.56;4875336;29;20052;-75
2023/12/30 09:21:16;;;;;;;;;;;;;;;6.87;100.00;97998.56;4868864;29;20055;-75
2023/12/30 09:23:44;;;;;;;2.65;1.50;;;;;;;6.71;100.00;98001.31;4891134;29;19923;-77
2023/12/30 09:26:14;;;;;;;1.30;1.20;;;;;;;6.66;100.00;98005.44;4877926;29;20052;-77
2023/12/30 09:28:40;;;;;;;1.88;1.60;;;;;;;6.53;100.00;98003.34;4878616;29;20052;-76
2023/12/30 09:31:11;;;;;;;2.88;1.50;;;;;;;6.60;100.00;98006.97;4870934;29;20189;-78
2023/12/30 09:33:41;;;;;;;1.65;1.50;;;;;;;6.61;100.00;98010.44;4893928;29;20052;-76
2023/12/30 09:36:11;;;;;;;2.10;1.83;;;;;;;6.50;100.00;98002.91;4902006;29;20060;-76
2023/12/30 09:38:37;;;;;;;1.50;1.38;;;;;;;6.50;100.00;98006.34;4875086;29;20068;-78
2023/12/30 09:41:04;;;;;;;1.50;1.40;;;;;;;6.50;100.00;98001.06;4865410;29;20056;-77
2023/12/30 09:43:30;;;;;;;2.05;1.50;;;;;;;6.55;100.00;98014.56;4876133;29;20049;-78
2023/12/30 09:45:56;;;;;;;1.60;1.50;;;;;;;6.46;100.00;98028.78;4890763;29;20040;-76
2023/12/30 09:48:25;;;;;;;1.98;1.80;;;;;;;6.53;100.00;98024.44;4876503;29;20052;-75
2023/12/30 09:50:55;;;;;;;2.35;1.70;;;;;;;6.44;100.00;98032.59;4920332;28;20141;-77
2023/12/30 09:53:22;;;;;;;2.95;1.60;;;;;;;6.39;100.00;98029.63;4937976;28;20133;-77
2023/12/30 09:55:53;;;;;;;2.55;1.60;;;;;;;6.56;100.00;98032.06;4926274;28;20065;-77
2023/12/30 09:58:23;;;;;;;1.67;1.48;;;;;;;6.58;100.00;98027.41;4953399;28;20206;-77
2023/12/30 10:00:49;;;;;;;2.35;1.80;;;;;;;6.51;100.00;98036.19;4953157;28;20042;-77
2023/12/30 10:03:16;;;;;;;1.75;1.60;;;;;;;6.60;100.00;98041.25;4970004;28;20050;-78
2023/12/30 10:05:41;;;;;;;1.73;1.58;;;;;;;6.53;100.00;98035.00;4963706;28;20045;-79
2023/12/30 10:08:08;;;;;;;1.80;1.70;;;;;;;6.45;100.00;98040.34;4961896;28;20046;-78
2023/12/30 10:10:46;;;;;;;2.13;1.70;;;;;;;6.58;100.00;98031.88;4914670;29;20747;-77
2023/12/30 10:13:14;;;;;;;1.50;1.40;;;;;;;6.50;100.00;98019.53;4877459;29;20056;-77
2023/12/30 10:15:45;;;;;;;1.80;1.70;;;;;;;6.34;100.00;98031.97;4877402;29;20152;-78
2023/12/30 10:18:15;;;;;;;1.40;1.20;;;;;;;6.47;100.00;98032.25;4879231;29;20052;-77
2023/12/30 10:20:44;;;;;;;2.00;1.73;;;;;;;6.58;100.00;98027.41;4826636;29;20239;-76
2023/12/30 10:23:11;;;;;;;1.67;1.58;;;;;;;6.59;100.00;98021.16;4826459;29;20068;-78
2023/12/30 10:25:41;;;;;;;1.88;1.48;;;;;;;6.58;100.00;98037.94;4872762;29;20064;-77
2023/12/30 10:28:07;;;;;;;1.98;1.63;;;;;;;6.63;100.00;98030.34;4857383;29;20061;-77
2023/12/30 10:30:35;;;;;;;1.50;1.33;;;;;;;6.62;100.00;98033.16;4842322;29;20080;-76
2023/12/30 10:33:11;;;;;;;2.67;1.83;;;;;;;6.63;100.00;98040.91;4829506;29;20617;-77
2023/12/30 10:35:42;;;;;;;2.20;1.80;;;;;;;6.57;100.00;98052.16;4844715;29;20057;-76
2023/12/30 10:38:17;;;;;;;2.50;1.70;;;;;;;6.49;100.00;98046.91;4860387;29;20052;-77
2023/12/30 10:40:44;;;;;;;2.30;1.70;;;;;;;6.50;100.00;98045.91;4830963;29;20092;-77
2023/12/30 10:43:10;;;;;;;1.50;1.40;;;;;;;6.55;100.00;98040.94;4881570;29;20140;-76
2023/12/30 10:45:42;;;;;;;1.70;1.50;;;;;;;6.59;100.00;98031.72;4896627;29;20071;-77
2023/12/30 10:48:14;;;;;;;1.70;1.60;;;;;;;6.64;100.00;98029.34;4897401;29;20052;-78
2023/12/30 10:50:46;;;;;;;1.50;1.20;;;;;;;6.71;100.00;98025.03;4881823;29;20131;-76
2023/12/30 10:53:25;;;;;;;1.90;1.50;;;;;;;6.77;100.00;98027.00;4883087;29;20486;-77
2023/12/30 10:55:55;;;;;;;1.85;1.60;;;;;;;6.74;100.00;98026.50;4897468;29;20055;-77
2023/12/30 10:58:25;;;;;;;1.75;1.58;;;;;;;6.72;100.00;98042.50;4934418;28;20050;-76
2023/12/30 11:00:58;;;;;;;1.73;1.50;;;;;;;6.84;100.00;98030.56;4880890;29;20060;-77
2023/12/30 11:03:25;;;;;;;2.92;1.52;;;;;;;6.82;100.00;98032.56;4895656;29;20163;-76
2023/12/30 11:06:04;;;;;;;1.30;1.20;;;;;;;6.86;100.00;98028.59;4904795;29;20157;-76
2023/12/30 11:08:38;;;;;;;3.05;1.63;;;;;;;6.80;100.00;98039.00;4903246;29;20078;-77
2023/12/30 11:11:04;;;;;;;3.35;1.63;;;;;;;6.74;100.00;98035.25;4923244;29;20065;-76
2023/12/30 11:13:35;;;;;;;2.20;1.40;;;;;;;6.79;100.00;98040.84;4922060;29;20101;-76
2023/12/30 11:16:19;;;;;;;1.67;1.58;;;;;;;6.92;100.00;98042.88;4915178;29;20063;-76
2023/12/30 11:19:03;;;;;;;1.90;1.58;;;;;;;6.91;100.00;98035.97;4899370;29;20398;-77
2023/12/30 11:21:35;;;;;;;1.60;1.50;;;;;;;6.86;100.00;98040.94;4899518;29;20056;-78
2023/12/30 11:24:06;;;;;;;1.85;1.45;;;;;;;6.83;100.00;98039.47;4899683;29;20056;-77
2023/12/30 11:26:35;;;;;;;2.28;1.48;;;;;;;6.88;100.00;98046.88;4884766;29;20043;-77
2023/12/30 11:29:04;;;;;;;3.42;1.40;;;;;;;6.90;100.00;98052.81;4917038;29;20574;-77
2023/12/30 11:31:39;;;;;;;1.83;1.58;;;;;;;6.88;100.00;98046.88;4881655;29;20479;-77
2023/12/30 11:34:06;;;;;;;2.30;1.67;;;;;;;6.74;100.00;98042.34;4944630;29;20060;-78
2023/12/30 11:36:32;;;;;;;1.92;1.58;;;;;;;6.76;100.00;98054.34;4912223;29;20048;-77